createdAt,value
2022-12-08T00:02:06.549Z,9.40
2022-12-08T00:04:54.315Z,10.40
2022-12-08T00:07:39.699Z,10.63
2022-12-08T00:10:39.836Z,9.30
2022-12-08T00:12:55.577Z,9.47
2022-12-08T00:15:26.046Z,9.27
2022-12-08T00:17:53.565Z,9.90
2022-12-08T00:20:21.174Z,9.73
2022-12-08T00:22:50.095Z,9.90
2022-12-08T00:25:17.754Z,10.83
2022-12-08T00:27:45.418Z,10.63
2022-12-08T00:30:13.185Z,11.00
2022-12-08T00:32:40.747Z,10.30
2022-12-08T00:35:08.658Z,9.63
2022-12-08T00:37:36.118Z,9.70
2022-12-08T00:40:05.597Z,9.23
2022-12-08T00:42:33.361Z,11.10
2022-12-08T00:45:00.998Z,10.27
2022-12-08T00:47:28.565Z,9.50
2022-12-08T00:49:56.097Z,10.13
2022-12-08T00:52:23.671Z,10.93
2022-12-08T00:54:51.196Z,11.07
2022-12-08T00:57:20.196Z,10.20
2022-12-08T00:59:47.741Z,9.70
2022-12-08T01:02:15.691Z,10.70
2022-12-08T01:04:43.315Z,10.60
2022-12-08T01:07:11.088Z,10.10
2022-12-08T01:09:38.731Z,10.20
2022-12-08T01:12:06.889Z,9.30
2022-12-08T01:14:35.873Z,9.93
2022-12-08T01:17:03.464Z,10.20
2022-12-08T01:19:31.288Z,9.50
2022-12-08T01:21:58.859Z,10.53
2022-12-08T01:24:26.401Z,8.97
2022-12-08T01:26:54.035Z,9.57
2022-12-08T01:29:22.337Z,9.87
2022-12-08T01:31:51.375Z,9.63
2022-12-08T01:34:19.109Z,10.53
2022-12-08T01:36:47.963Z,10.17
2022-12-08T01:39:16.784Z,9.33
2022-12-08T01:41:45.700Z,9.70
2022-12-08T01:44:32.091Z,10.00
2022-12-08T01:47:00.934Z,9.93
2022-12-08T01:49:29.427Z,10.33
2022-12-08T01:51:58.755Z,10.00
2022-12-08T01:54:29.449Z,9.60
2022-12-08T01:56:59.715Z,10.03
2022-12-08T01:59:27.949Z,10.07
2022-12-08T02:01:55.697Z,9.70
2022-12-08T02:04:24.663Z,9.30
2022-12-08T02:06:52.716Z,9.40
2022-12-08T02:09:20.795Z,9.17
2022-12-08T02:11:48.538Z,9.33
2022-12-08T02:14:16.238Z,8.83
2022-12-08T02:16:46.767Z,9.43
2022-12-08T02:19:32.155Z,8.67
2022-12-08T02:22:05.705Z,8.13
2022-12-08T02:24:38.114Z,9.13
2022-12-08T02:27:23.288Z,8.33
2022-12-08T02:30:03.894Z,9.33
2022-12-08T02:32:41.446Z,9.17
2022-12-08T02:35:11.977Z,9.13
2022-12-08T02:37:41.960Z,10.47
2022-12-08T02:40:13.569Z,10.33
2022-12-08T02:42:43.387Z,9.60
2022-12-08T02:45:14.665Z,9.20
2022-12-08T02:47:42.236Z,8.93
2022-12-08T02:50:11.557Z,10.17
2022-12-08T02:52:40.394Z,9.30
2022-12-08T02:55:10.635Z,9.23
2022-12-08T02:57:41.896Z,9.10
2022-12-08T03:00:10.267Z,10.00
2022-12-08T03:02:54.665Z,9.93
2022-12-08T03:05:32.110Z,9.27
2022-12-08T03:08:04.027Z,9.13
2022-12-08T03:10:34.440Z,8.70
2022-12-08T03:13:05.318Z,10.47
2022-12-08T03:15:33.382Z,9.50
2022-12-08T03:18:01.288Z,10.80
2022-12-08T03:20:31.181Z,10.73
2022-12-08T03:23:01.304Z,10.07
2022-12-08T03:25:31.800Z,11.13
2022-12-08T03:28:00.398Z,10.77
2022-12-08T03:30:28.768Z,10.43
2022-12-08T03:33:00.627Z,10.30
2022-12-08T03:35:31.011Z,11.10
2022-12-08T03:38:04.668Z,10.57
2022-12-08T03:40:32.395Z,11.87
2022-12-08T03:42:59.975Z,12.10
2022-12-08T03:45:27.953Z,11.60
2022-12-08T03:47:55.447Z,11.87
2022-12-08T03:50:23.063Z,12.57
2022-12-08T03:52:50.606Z,12.53
2022-12-08T03:55:21.387Z,14.07
2022-12-08T03:57:48.916Z,13.13
2022-12-08T04:00:17.506Z,13.30
2022-12-08T04:02:45.032Z,12.67
2022-12-08T04:05:12.700Z,13.53
2022-12-08T04:07:40.407Z,13.53
2022-12-08T04:10:08.690Z,13.37
2022-12-08T04:12:37.616Z,14.33
2022-12-08T04:15:05.468Z,14.23
2022-12-08T04:17:32.987Z,12.53
2022-12-08T04:20:00.539Z,14.27
2022-12-08T04:22:28.108Z,14.03
2022-12-08T04:24:55.898Z,14.80
2022-12-08T04:27:23.419Z,13.90
2022-12-08T04:29:52.460Z,14.37
2022-12-08T04:32:20.295Z,13.93
2022-12-08T04:34:47.886Z,14.30
2022-12-08T04:37:15.408Z,12.47
2022-12-08T04:39:42.953Z,12.87
2022-12-08T04:42:10.538Z,14.27
2022-12-08T04:44:38.307Z,14.03
2022-12-08T04:47:09.303Z,14.00
2022-12-08T04:49:38.094Z,14.40
2022-12-08T04:52:05.800Z,14.13
2022-12-08T04:54:33.347Z,14.10
2022-12-08T04:57:00.885Z,14.90
2022-12-08T04:59:28.387Z,15.07
2022-12-08T05:01:56.055Z,14.37
2022-12-08T05:04:25.298Z,14.73
2022-12-08T05:06:52.837Z,13.63
2022-12-08T05:09:20.834Z,13.77
2022-12-08T05:11:49.246Z,14.70
2022-12-08T05:14:17.715Z,13.83
2022-12-08T05:16:45.728Z,14.83
2022-12-08T05:19:13.369Z,12.57
2022-12-08T05:21:42.270Z,10.93
2022-12-08T05:24:09.836Z,11.90
2022-12-08T05:26:37.443Z,12.87
2022-12-08T05:29:05.142Z,12.17
2022-12-08T05:31:32.866Z,11.80
2022-12-08T05:34:03.185Z,14.27
2022-12-08T05:36:31.131Z,13.00
2022-12-08T05:39:00.098Z,12.87
2022-12-08T05:41:27.752Z,14.63
2022-12-08T05:43:55.584Z,13.70
2022-12-08T05:46:23.168Z,13.43
2022-12-08T05:48:51.016Z,13.23
2022-12-08T05:51:20.250Z,13.97
2022-12-08T05:53:48.631Z,13.73
2022-12-08T05:56:17.855Z,14.10
2022-12-08T05:58:45.585Z,13.60
2022-12-08T06:01:19.560Z,13.50
2022-12-08T06:03:47.128Z,13.30
2022-12-08T06:06:14.671Z,13.67
2022-12-08T06:08:42.181Z,14.53
2022-12-08T06:11:09.672Z,14.17
2022-12-08T06:13:38.604Z,15.97
2022-12-08T06:16:06.895Z,14.83
2022-12-08T06:18:34.533Z,15.57
2022-12-08T06:21:05.904Z,14.97
2022-12-08T06:23:33.390Z,16.23
2022-12-08T06:26:04.286Z,15.00
2022-12-08T06:28:32.294Z,13.83
2022-12-08T06:31:01.510Z,14.67
2022-12-08T06:33:29.011Z,14.37
2022-12-08T06:35:56.522Z,15.27
2022-12-08T06:38:24.187Z,14.70
2022-12-08T06:40:54.309Z,15.73
2022-12-08T06:43:22.092Z,28.23
2022-12-08T06:45:50.068Z,19.37
2022-12-08T06:48:19.852Z,15.57
2022-12-08T06:50:47.645Z,15.33
2022-12-08T06:53:16.025Z,13.53
2022-12-08T06:56:02.056Z,14.97
2022-12-08T06:58:29.751Z,13.57
2022-12-08T07:00:57.346Z,14.27
2022-12-08T07:03:26.275Z,14.53
2022-12-08T07:06:00.352Z,14.03
2022-12-08T07:08:31.006Z,16.07
2022-12-08T07:10:58.686Z,15.13
2022-12-08T07:13:26.181Z,15.13
2022-12-08T07:15:53.667Z,15.40
2022-12-08T07:18:21.160Z,14.00
2022-12-08T07:20:50.056Z,14.70
2022-12-08T07:23:17.660Z,14.43
2022-12-08T07:25:45.141Z,14.77
2022-12-08T07:28:13.053Z,14.47
2022-12-08T07:30:40.847Z,15.47
2022-12-08T07:33:08.502Z,14.53
2022-12-08T07:35:36.025Z,15.17
2022-12-08T07:38:04.968Z,16.00
2022-12-08T07:40:32.630Z,15.33
2022-12-08T07:43:00.281Z,15.13
2022-12-08T07:45:31.423Z,13.73
2022-12-08T07:47:59.488Z,14.57
2022-12-08T07:50:27.227Z,14.60
2022-12-08T07:52:55.019Z,14.37
2022-12-08T07:55:24.067Z,15.47
2022-12-08T07:57:51.675Z,16.00
2022-12-08T08:00:19.691Z,16.00
2022-12-08T08:02:47.323Z,16.43
2022-12-08T08:05:15.120Z,15.10
2022-12-08T08:07:43.668Z,15.77
2022-12-08T08:10:11.996Z,15.77
2022-12-08T08:12:40.895Z,16.30
2022-12-08T08:15:09.595Z,14.30
2022-12-08T08:17:38.210Z,20.20
2022-12-08T08:20:07.318Z,16.07
2022-12-08T08:22:35.550Z,14.13
2022-12-08T08:25:03.393Z,13.50
2022-12-08T08:27:31.094Z,14.50
2022-12-08T08:29:59.999Z,14.83
2022-12-08T08:32:27.616Z,14.47
2022-12-08T08:34:55.126Z,16.30
2022-12-08T08:37:22.882Z,17.67
2022-12-08T08:39:50.621Z,17.20
2022-12-08T08:42:18.261Z,15.73
2022-12-08T08:44:46.058Z,17.00
2022-12-08T08:47:15.155Z,16.57
2022-12-08T08:49:42.763Z,15.07
2022-12-08T08:52:10.454Z,15.07
2022-12-08T08:54:38.254Z,14.57
2022-12-08T08:57:05.812Z,15.30
2022-12-08T08:59:33.433Z,15.30
2022-12-08T09:02:01.086Z,16.50
2022-12-08T09:04:30.227Z,16.37
2022-12-08T09:06:57.856Z,16.83
2022-12-08T09:09:25.539Z,18.53
2022-12-08T09:11:53.092Z,16.43
2022-12-08T09:14:20.652Z,17.30
2022-12-08T09:16:48.279Z,16.77
2022-12-08T09:19:15.971Z,16.47
2022-12-08T09:21:45.041Z,16.37
2022-12-08T09:24:15.933Z,14.90
2022-12-08T09:26:47.128Z,16.30
2022-12-08T09:29:14.911Z,17.23
2022-12-08T09:31:43.002Z,17.43
2022-12-08T09:34:11.096Z,16.83
2022-12-08T09:36:38.598Z,17.03
2022-12-08T09:39:07.799Z,16.23
2022-12-08T09:41:40.642Z,16.73
2022-12-08T09:44:21.342Z,15.90
2022-12-08T09:46:50.052Z,15.53
2022-12-08T09:49:19.449Z,15.37
2022-12-08T09:51:47.083Z,16.13
2022-12-08T09:54:18.392Z,15.47
2022-12-08T09:56:45.980Z,15.17
2022-12-08T09:59:22.133Z,15.97
2022-12-08T10:01:49.924Z,16.60
2022-12-08T10:04:21.275Z,16.50
2022-12-08T10:06:51.348Z,14.73
2022-12-08T10:09:29.083Z,15.90
2022-12-08T10:12:00.819Z,14.60
2022-12-08T10:14:32.526Z,14.90
2022-12-08T10:17:02.354Z,14.97
2022-12-08T10:19:30.248Z,15.00
2022-12-08T10:21:58.869Z,13.73
2022-12-08T10:24:33.489Z,13.17
2022-12-08T10:27:01.418Z,12.03
2022-12-08T10:29:29.082Z,12.20
2022-12-08T10:31:58.306Z,11.67
2022-12-08T10:34:26.164Z,12.23
2022-12-08T10:36:56.135Z,9.73
2022-12-08T10:39:35.444Z,8.07
2022-12-08T10:42:18.874Z,7.07
2022-12-08T10:44:54.753Z,6.57
2022-12-08T10:47:23.076Z,6.20
2022-12-08T10:50:07.296Z,7.37
2022-12-08T10:52:39.053Z,6.60
2022-12-08T10:55:15.385Z,6.73
2022-12-08T10:57:43.054Z,6.18
2022-12-08T11:00:14.706Z,8.20
2022-12-08T11:02:53.949Z,6.38
2022-12-08T11:05:22.640Z,6.28
2022-12-08T11:07:51.167Z,6.70
2022-12-08T11:10:21.261Z,6.10
2022-12-08T11:12:50.419Z,5.78
2022-12-08T11:15:18.816Z,5.50
2022-12-08T11:17:52.174Z,6.20
2022-12-08T11:20:24.431Z,5.32
2022-12-08T11:22:54.174Z,5.40
2022-12-08T11:25:24.763Z,5.85
2022-12-08T11:27:53.044Z,5.70
2022-12-08T11:30:21.617Z,4.97
2022-12-08T11:32:50.037Z,5.80
2022-12-08T11:35:23.982Z,5.53
2022-12-08T11:37:51.565Z,6.38
2022-12-08T11:40:21.949Z,6.07
2022-12-08T11:42:54.936Z,5.65
2022-12-08T11:45:25.665Z,5.50
2022-12-08T11:47:59.142Z,5.38
2022-12-08T11:50:28.525Z,5.60
2022-12-08T11:52:57.961Z,5.60
2022-12-08T11:55:36.993Z,5.18
2022-12-08T11:58:13.871Z,5.10
2022-12-08T12:00:41.415Z,5.65
2022-12-08T12:03:13.491Z,5.10
2022-12-08T12:06:09.109Z,5.10
2022-12-08T12:08:42.507Z,4.68
2022-12-08T12:11:33.296Z,5.30
2022-12-08T12:14:12.875Z,4.28
2022-12-08T12:16:56.554Z,5.85
2022-12-08T12:19:24.961Z,5.22
2022-12-08T12:21:53.827Z,5.65
2022-12-08T12:24:26.753Z,5.70
2022-12-08T12:26:58.833Z,5.55
2022-12-08T12:29:29.864Z,5.20
2022-12-08T12:31:59.512Z,5.70
2022-12-08T12:34:29.085Z,5.43
2022-12-08T12:36:57.959Z,6.03
2022-12-08T12:39:28.039Z,5.72
2022-12-08T12:41:56.710Z,5.25
2022-12-08T12:44:39.212Z,6.03
2022-12-08T12:47:11.556Z,5.07
2022-12-08T12:50:06.873Z,5.07
2022-12-08T12:52:53.178Z,5.47
2022-12-08T12:55:22.407Z,5.25
2022-12-08T12:57:52.031Z,5.10
2022-12-08T13:00:20.220Z,4.95
2022-12-08T13:02:49.866Z,5.32
2022-12-08T13:05:19.220Z,5.30
2022-12-08T13:07:50.653Z,4.88
2022-12-08T13:10:19.981Z,5.18
2022-12-08T13:12:55.115Z,4.90
2022-12-08T13:15:22.636Z,5.68
2022-12-08T13:17:51.560Z,4.20
2022-12-08T13:20:21.538Z,4.32
2022-12-08T13:23:13.442Z,5.15
2022-12-08T13:25:59.237Z,4.80
2022-12-08T13:28:28.357Z,4.97
2022-12-08T13:30:57.249Z,5.10
2022-12-08T13:33:30.279Z,4.63
2022-12-08T13:36:03.141Z,4.80
2022-12-08T13:38:33.868Z,5.00
2022-12-08T13:41:02.202Z,6.45
2022-12-08T13:43:44.778Z,5.82
2022-12-08T13:55:49.695Z,4.88
2022-12-08T13:57:36.039Z,5.30
2022-12-08T14:00:06.453Z,5.18
2022-12-08T14:02:35.959Z,5.28
2022-12-08T14:05:34.660Z,5.20
2022-12-08T14:07:54.953Z,5.60
2022-12-08T14:10:25.120Z,5.90
2022-12-08T14:12:55.853Z,4.70
2022-12-08T14:15:23.922Z,5.30
2022-12-08T14:17:54.797Z,4.75
2022-12-08T14:20:26.264Z,5.10
2022-12-08T14:22:54.904Z,4.85
2022-12-08T14:25:22.867Z,4.72
2022-12-08T14:27:51.300Z,4.82
2022-12-08T14:30:20.929Z,5.40
2022-12-08T14:32:50.085Z,6.28
2022-12-08T14:35:23.496Z,8.90
2022-12-08T14:37:54.097Z,5.43
2022-12-08T14:40:23.826Z,4.45
2022-12-08T14:42:52.741Z,5.25
2022-12-08T14:45:20.889Z,6.05
2022-12-08T14:47:48.765Z,6.05
2022-12-08T14:50:35.126Z,4.83
2022-12-08T14:53:04.374Z,6.03
2022-12-08T14:55:35.697Z,5.13
2022-12-08T14:58:03.568Z,10.23
2022-12-08T15:00:31.388Z,4.60
2022-12-08T15:02:58.994Z,4.55
2022-12-08T15:05:28.371Z,4.13
2022-12-08T15:08:01.087Z,4.25
2022-12-08T15:10:31.931Z,3.93
2022-12-08T15:13:03.339Z,4.40
2022-12-08T15:15:31.822Z,4.53
2022-12-08T15:18:05.210Z,4.43
2022-12-08T15:20:35.884Z,4.60
2022-12-08T15:23:03.719Z,4.40
2022-12-08T15:25:32.752Z,4.75
2022-12-08T15:28:00.377Z,4.60
2022-12-08T15:30:28.580Z,4.43
2022-12-08T15:32:56.364Z,3.60
2022-12-08T15:35:24.051Z,5.10
2022-12-08T15:37:53.513Z,5.50
2022-12-08T15:40:22.867Z,4.50
2022-12-08T15:42:51.900Z,4.67
2022-12-08T15:45:19.612Z,4.40
2022-12-08T15:47:47.314Z,4.13
2022-12-08T15:50:18.828Z,5.33
2022-12-08T15:52:46.784Z,5.05
2022-12-08T15:55:14.854Z,4.57
2022-12-08T15:58:31.250Z,4.87
2022-12-08T16:00:53.095Z,4.97
2022-12-08T16:04:09.058Z,4.33
2022-12-08T16:09:11.629Z,4.68
2022-12-08T16:12:06.689Z,5.03
2022-12-08T16:17:27.247Z,4.93
2022-12-08T16:19:55.036Z,6.93
2022-12-08T16:25:21.651Z,5.03
2022-12-08T16:28:29.298Z,6.53
2022-12-08T16:30:38.696Z,7.23
2022-12-08T16:33:07.626Z,6.47
2022-12-08T16:35:35.272Z,6.97
2022-12-08T16:38:03.054Z,8.03
2022-12-08T16:40:30.740Z,7.95
2022-12-08T16:42:58.560Z,8.93
2022-12-08T16:45:27.408Z,6.65
2022-12-08T16:47:56.203Z,6.10
2022-12-08T16:50:26.605Z,5.53
2022-12-08T16:52:57.351Z,5.90
2022-12-08T16:55:24.940Z,5.87
2022-12-08T16:57:52.562Z,5.90
2022-12-08T17:00:21.143Z,7.47
2022-12-08T17:02:49.063Z,6.68
2022-12-08T17:05:18.559Z,5.93
2022-12-08T17:07:48.122Z,6.60
2022-12-08T17:10:18.529Z,6.23
2022-12-08T17:12:46.376Z,6.95
2022-12-08T17:15:16.185Z,6.90
2022-12-08T17:17:43.974Z,6.63
2022-12-08T17:20:13.708Z,6.10
2022-12-08T17:22:41.296Z,6.03
2022-12-08T17:25:10.513Z,6.83
2022-12-08T17:27:38.219Z,9.40
2022-12-08T17:30:06.432Z,7.80
2022-12-08T17:32:34.640Z,8.07
2022-12-08T17:35:02.631Z,7.55
2022-12-08T17:37:30.380Z,7.28
2022-12-08T17:39:57.955Z,10.40
2022-12-08T17:42:27.339Z,9.27
2022-12-08T17:44:55.367Z,7.90
2022-12-08T17:47:23.149Z,7.43
2022-12-08T17:49:50.896Z,6.32
2022-12-08T17:52:18.428Z,7.00
2022-12-08T17:54:45.975Z,27.35
2022-12-08T17:57:13.626Z,14.90
2022-12-08T17:59:42.616Z,14.07
2022-12-08T18:02:11.308Z,13.87
2022-12-08T18:04:38.992Z,12.73
2022-12-08T18:07:06.698Z,9.30
2022-12-08T18:09:34.789Z,7.97
2022-12-08T18:12:02.343Z,10.73
2022-12-08T18:14:29.871Z,9.03
2022-12-08T18:16:59.776Z,9.47
2022-12-08T18:19:27.890Z,12.60
2022-12-08T18:21:55.488Z,13.48
2022-12-08T18:24:23.733Z,10.07
2022-12-08T18:26:52.141Z,9.27
2022-12-08T18:29:19.879Z,9.50
2022-12-08T18:31:47.416Z,7.57
2022-12-08T18:34:16.532Z,8.73
2022-12-08T18:36:44.130Z,8.73
2022-12-08T18:39:20.959Z,9.57
2022-12-08T18:41:48.476Z,10.40
2022-12-08T18:44:16.231Z,10.00
2022-12-08T18:46:43.867Z,8.43
2022-12-08T18:49:12.691Z,7.80
2022-12-08T18:51:41.759Z,7.63
2022-12-08T18:54:09.706Z,8.23
2022-12-08T18:56:37.469Z,7.70
2022-12-08T18:59:06.237Z,7.70
2022-12-08T19:01:34.291Z,8.17
2022-12-08T19:06:52.127Z,8.73
2022-12-08T19:09:20.035Z,9.17
2022-12-08T19:11:47.856Z,8.15
2022-12-08T19:14:19.208Z,10.87
2022-12-08T19:16:50.245Z,9.27
2022-12-08T19:19:21.571Z,8.40
2022-12-08T19:21:49.066Z,8.00
2022-12-08T19:24:20.458Z,7.50
2022-12-08T19:26:48.031Z,8.10
2022-12-08T19:29:15.744Z,8.50
2022-12-08T19:31:43.513Z,9.87
2022-12-08T19:34:11.238Z,7.43
2022-12-08T19:36:42.610Z,7.70
2022-12-08T19:39:31.571Z,6.80
2022-12-08T19:42:18.166Z,9.17
2022-12-08T19:44:54.762Z,11.47
2022-12-08T19:47:22.899Z,11.37
2022-12-08T19:49:50.444Z,10.67
2022-12-08T19:52:18.181Z,12.10
2022-12-08T19:54:45.811Z,12.10
2022-12-08T19:57:14.729Z,9.30
2022-12-08T19:59:42.436Z,9.57
2022-12-08T20:02:11.608Z,7.40
2022-12-08T20:04:39.218Z,7.10
2022-12-08T20:07:06.750Z,7.37
2022-12-08T20:09:34.406Z,7.30
2022-12-08T20:12:01.984Z,6.60
2022-12-08T20:14:31.009Z,6.60
2022-12-08T20:16:58.576Z,7.90
2022-12-08T20:19:26.357Z,7.70
2022-12-08T20:21:53.934Z,7.07
2022-12-08T20:24:21.703Z,7.50
2022-12-08T20:26:49.211Z,7.07
2022-12-08T20:29:17.111Z,7.00
2022-12-08T20:31:46.502Z,6.77
2022-12-08T20:34:15.856Z,7.63
2022-12-08T20:36:43.662Z,6.80
2022-12-08T20:39:12.142Z,7.10
2022-12-08T20:41:39.742Z,8.27
2022-12-08T20:44:07.622Z,8.80
2022-12-08T20:46:35.974Z,8.43
2022-12-08T20:49:05.450Z,8.50
2022-12-08T20:51:35.544Z,7.50
2022-12-08T20:54:04.520Z,7.87
2022-12-08T20:56:32.736Z,9.43
2022-12-08T20:59:00.436Z,8.80
2022-12-08T21:01:28.157Z,7.87
2022-12-08T21:03:56.104Z,7.43
2022-12-08T21:06:26.988Z,7.63
2022-12-08T21:08:55.007Z,6.73
2022-12-08T21:11:22.778Z,8.30
2022-12-08T21:13:50.381Z,7.60
2022-12-08T21:16:18.116Z,7.93
2022-12-08T21:18:46.081Z,8.17
2022-12-08T21:21:15.024Z,8.20
2022-12-08T21:23:44.476Z,7.70
2022-12-08T21:26:13.117Z,6.73
2022-12-08T21:28:40.767Z,7.33
2022-12-08T21:31:09.013Z,7.10
2022-12-08T21:33:37.192Z,7.80
2022-12-08T21:36:08.187Z,6.10
2022-12-08T21:38:36.271Z,6.40
2022-12-08T21:41:09.179Z,6.03
2022-12-08T21:43:36.737Z,5.93
2022-12-08T21:46:04.384Z,7.67
2022-12-08T21:48:31.960Z,9.30
2022-12-08T21:51:04.351Z,6.67
2022-12-08T21:53:32.015Z,6.37
2022-12-08T21:55:59.580Z,7.47
2022-12-08T21:58:31.989Z,7.90
2022-12-08T22:01:05.646Z,8.43
2022-12-08T22:03:33.429Z,10.23
2022-12-08T22:06:04.786Z,9.30
2022-12-08T22:08:32.499Z,8.87
2022-12-08T22:11:00.265Z,10.00
2022-12-08T22:13:29.390Z,9.77
2022-12-08T22:15:58.359Z,9.97
2022-12-08T22:18:26.317Z,9.93
2022-12-08T22:20:53.979Z,8.93
2022-12-08T22:23:21.715Z,9.93
2022-12-08T22:25:56.549Z,9.37
2022-12-08T22:28:24.245Z,9.13
2022-12-08T22:30:53.302Z,9.67
2022-12-08T22:33:20.786Z,8.40
2022-12-08T22:35:55.971Z,8.80
2022-12-08T22:38:23.523Z,7.70
2022-12-08T22:40:51.242Z,8.13
2022-12-08T22:43:19.038Z,9.70
2022-12-08T22:45:46.594Z,9.60
2022-12-08T22:48:15.883Z,8.60
2022-12-08T22:50:43.717Z,9.30
2022-12-08T22:53:11.563Z,8.93
2022-12-08T22:55:41.671Z,8.60
2022-12-08T22:58:09.355Z,10.20
2022-12-08T23:00:37.180Z,8.37
2022-12-08T23:03:05.261Z,8.77
2022-12-08T23:05:35.310Z,8.10
2022-12-08T23:08:03.227Z,7.93
2022-12-08T23:10:31.459Z,6.90
2022-12-08T23:13:03.714Z,6.70
2022-12-08T23:15:31.703Z,6.80
2022-12-08T23:17:59.338Z,7.37
2022-12-08T23:20:27.195Z,7.03
2022-12-08T23:22:56.306Z,7.27
2022-12-08T23:25:23.888Z,8.10
2022-12-08T23:27:51.413Z,8.87
2022-12-08T23:30:19.061Z,8.20
2022-12-08T23:32:46.641Z,8.13
2022-12-08T23:35:14.331Z,8.30
2022-12-08T23:37:41.877Z,8.13
2022-12-08T23:40:11.923Z,8.20
2022-12-08T23:42:40.148Z,7.77
2022-12-08T23:45:08.467Z,8.63
2022-12-08T23:47:36.409Z,8.43
2022-12-08T23:50:05.096Z,8.07
2022-12-08T23:52:33.128Z,7.80
2022-12-08T23:55:00.985Z,7.80
2022-12-08T23:57:30.090Z,7.43
2022-12-08T23:59:57.605Z,8.17
